sensor_id;sensor_type;location;lat;lon;timestamp;temperature;humidity
15083;DHT22;7640;53.116;6.878;2022-12-18T00:00:08;-1.70;99.90
15083;DHT22;7640;53.116;6.878;2022-12-18T00:02:37;-1.70;99.90
15083;DHT22;7640;53.116;6.878;2022-12-18T00:05:07;-1.70;99.90
15083;DHT22;7640;53.116;6.878;2022-12-18T00:07:36;-1.70;99.90
15083;DHT22;7640;53.116;6.878;2022-12-18T00:10:06;-1.70;99.90
15083;DHT22;7640;53.116;6.878;2022-12-18T00:12:35;-1.80;99.90
15083;DHT22;7640;53.116;6.878;2022-12-18T00:15:04;-1.70;99.90
15083;DHT22;7640;53.116;6.878;2022-12-18T00:17:32;-1.70;99.90
15083;DHT22;7640;53.116;6.878;2022-12-18T00:20:01;-1.70;99.90
15083;DHT22;7640;53.116;6.878;2022-12-18T00:22:30;-1.70;99.90
15083;DHT22;7640;53.116;6.878;2022-12-18T00:24:59;-1.70;99.90
15083;DHT22;7640;53.116;6.878;2022-12-18T00:27:27;-1.70;99.90
15083;DHT22;7640;53.116;6.878;2022-12-18T00:29:55;-1.70;99.90
15083;DHT22;7640;53.116;6.878;2022-12-18T00:32:23;-1.70;99.90
15083;DHT22;7640;53.116;6.878;2022-12-18T00:34:52;-1.80;99.90
15083;DHT22;7640;53.116;6.878;2022-12-18T00:37:20;-1.60;99.90
15083;DHT22;7640;53.116;6.878;2022-12-18T00:39:50;-1.80;99.90
15083;DHT22;7640;53.116;6.878;2022-12-18T00:42:18;-1.80;99.90
15083;DHT22;7640;53.116;6.878;2022-12-18T00:45:05;-1.70;99.90
15083;DHT22;7640;53.116;6.878;2022-12-18T00:47:39;-1.90;99.90
15083;DHT22;7640;53.116;6.878;2022-12-18T00:50:08;-1.80;99.90
15083;DHT22;7640;53.116;6.878;2022-12-18T00:52:37;-1.90;99.90
15083;DHT22;7640;53.116;6.878;2022-12-18T00:55:07;-1.90;99.90
15083;DHT22;7640;53.116;6.878;2022-12-18T00:57:36;-1.90;99.90
15083;DHT22;7640;53.116;6.878;2022-12-18T01:00:08;-1.90;99.90
15083;DHT22;7640;53.116;6.878;2022-12-18T01:02:38;-1.90;99.90
15083;DHT22;7640;53.116;6.878;2022-12-18T01:05:07;-1.90;99.90
15083;DHT22;7640;53.116;6.878;2022-12-18T01:07:36;-1.90;99.90
15083;DHT22;7640;53.116;6.878;2022-12-18T01:10:08;-1.90;99.90
15083;DHT22;7640;53.116;6.878;2022-12-18T01:12:37;-1.90;99.90
15083;DHT22;7640;53.116;6.878;2022-12-18T01:15:07;-1.90;99.90
15083;DHT22;7640;53.116;6.878;2022-12-18T01:17:36;-1.90;99.90
15083;DHT22;7640;53.116;6.878;2022-12-18T01:20:05;-1.90;99.90
15083;DHT22;7640;53.116;6.878;2022-12-18T01:22:35;-2.00;99.90
15083;DHT22;7640;53.116;6.878;2022-12-18T01:25:04;-2.00;99.90
15083;DHT22;7640;53.116;6.878;2022-12-18T01:27:34;-2.00;99.90
15083;DHT22;7640;53.116;6.878;2022-12-18T01:30:03;-2.00;99.90
15083;DHT22;7640;53.116;6.878;2022-12-18T01:32:32;-2.10;99.90
15083;DHT22;7640;53.116;6.878;2022-12-18T01:35:01;-2.10;99.90
15083;DHT22;7640;53.116;6.878;2022-12-18T01:37:30;-2.10;99.90
15083;DHT22;7640;53.116;6.878;2022-12-18T01:39:58;-2.10;99.90
15083;DHT22;7640;53.116;6.878;2022-12-18T01:42:27;-2.10;99.90
15083;DHT22;7640;53.116;6.878;2022-12-18T01:45:00;-2.10;99.90
15083;DHT22;7640;53.116;6.878;2022-12-18T01:47:35;-2.10;99.90
15083;DHT22;7640;53.116;6.878;2022-12-18T01:50:09;-2.00;99.90
15083;DHT22;7640;53.116;6.878;2022-12-18T01:52:41;-2.10;99.90
15083;DHT22;7640;53.116;6.878;2022-12-18T01:55:12;-2.10;99.90
15083;DHT22;7640;53.116;6.878;2022-12-18T01:57:41;-2.10;99.90
15083;DHT22;7640;53.116;6.878;2022-12-18T02:00:14;-2.10;99.90
15083;DHT22;7640;53.116;6.878;2022-12-18T02:02:47;-2.20;99.90
15083;DHT22;7640;53.116;6.878;2022-12-18T02:05:18;-2.20;99.90
15083;DHT22;7640;53.116;6.878;2022-12-18T02:07:57;-2.20;99.90
15083;DHT22;7640;53.116;6.878;2022-12-18T02:10:33;-2.20;99.90
15083;DHT22;7640;53.116;6.878;2022-12-18T02:13:12;-2.20;99.90
15083;DHT22;7640;53.116;6.878;2022-12-18T02:15:49;-2.20;99.90
15083;DHT22;7640;53.116;6.878;2022-12-18T02:18:21;-2.20;99.90
15083;DHT22;7640;53.116;6.878;2022-12-18T02:20:55;-2.30;99.90
15083;DHT22;7640;53.116;6.878;2022-12-18T02:23:41;-2.30;99.90
15083;DHT22;7640;53.116;6.878;2022-12-18T02:26:19;-2.30;99.90
15083;DHT22;7640;53.116;6.878;2022-12-18T02:28:53;-2.40;99.90
15083;DHT22;7640;53.116;6.878;2022-12-18T02:31:25;-2.50;99.90
15083;DHT22;7640;53.116;6.878;2022-12-18T02:33:58;-2.50;99.90
15083;DHT22;7640;53.116;6.878;2022-12-18T02:36:28;-2.60;99.90
15083;DHT22;7640;53.116;6.878;2022-12-18T02:38:58;-2.60;99.90
15083;DHT22;7640;53.116;6.878;2022-12-18T02:41:28;-2.60;99.90
15083;DHT22;7640;53.116;6.878;2022-12-18T02:44:01;-2.70;99.90
15083;DHT22;7640;53.116;6.878;2022-12-18T02:46:32;-2.80;99.90
15083;DHT22;7640;53.116;6.878;2022-12-18T02:49:10;-2.90;99.90
15083;DHT22;7640;53.116;6.878;2022-12-18T02:51:50;-2.90;99.90
15083;DHT22;7640;53.116;6.878;2022-12-18T02:57:25;-3.00;99.90
15083;DHT22;7640;53.116;6.878;2022-12-18T03:00:01;-3.10;99.90
15083;DHT22;7640;53.116;6.878;2022-12-18T03:02:37;-3.10;99.90
15083;DHT22;7640;53.116;6.878;2022-12-18T03:05:11;-3.00;99.90
15083;DHT22;7640;53.116;6.878;2022-12-18T03:07:44;-3.20;99.90
15083;DHT22;7640;53.116;6.878;2022-12-18T03:10:19;-3.20;99.90
15083;DHT22;7640;53.116;6.878;2022-12-18T03:12:54;-3.30;99.90
15083;DHT22;7640;53.116;6.878;2022-12-18T03:15:28;-3.30;99.90
15083;DHT22;7640;53.116;6.878;2022-12-18T03:18:04;-3.40;99.90
15083;DHT22;7640;53.116;6.878;2022-12-18T03:20:37;-3.40;99.90
15083;DHT22;7640;53.116;6.878;2022-12-18T03:23:12;-3.40;99.90
15083;DHT22;7640;53.116;6.878;2022-12-18T03:25:45;-3.50;99.90
15083;DHT22;7640;53.116;6.878;2022-12-18T03:28:19;-3.50;99.90
15083;DHT22;7640;53.116;6.878;2022-12-18T03:30:53;-3.50;99.90
15083;DHT22;7640;53.116;6.878;2022-12-18T03:33:26;-3.60;99.90
15083;DHT22;7640;53.116;6.878;2022-12-18T03:35:57;-3.60;99.90
15083;DHT22;7640;53.116;6.878;2022-12-18T03:38:25;-3.70;99.90
15083;DHT22;7640;53.116;6.878;2022-12-18T03:40:59;-3.70;99.90
15083;DHT22;7640;53.116;6.878;2022-12-18T03:43:37;-3.70;99.90
15083;DHT22;7640;53.116;6.878;2022-12-18T03:46:15;-3.80;99.90
15083;DHT22;7640;53.116;6.878;2022-12-18T03:48:51;-3.80;99.90
15083;DHT22;7640;53.116;6.878;2022-12-18T03:51:26;-3.90;99.90
15083;DHT22;7640;53.116;6.878;2022-12-18T03:53:58;-3.90;99.90
15083;DHT22;7640;53.116;6.878;2022-12-18T03:56:33;-4.00;99.90
15083;DHT22;7640;53.116;6.878;2022-12-18T03:59:08;-4.00;99.90
15083;DHT22;7640;53.116;6.878;2022-12-18T04:01:40;-4.00;99.90
15083;DHT22;7640;53.116;6.878;2022-12-18T04:04:12;-4.10;99.90
15083;DHT22;7640;53.116;6.878;2022-12-18T04:06:41;-4.10;99.90
15083;DHT22;7640;53.116;6.878;2022-12-18T04:09:12;-4.10;99.90
15083;DHT22;7640;53.116;6.878;2022-12-18T04:11:41;-4.20;99.90
15083;DHT22;7640;53.116;6.878;2022-12-18T04:14:12;-4.20;99.90
15083;DHT22;7640;53.116;6.878;2022-12-18T04:16:44;-4.20;99.90
15083;DHT22;7640;53.116;6.878;2022-12-18T04:19:12;-4.30;99.90
15083;DHT22;7640;53.116;6.878;2022-12-18T04:21:40;-4.30;99.90
15083;DHT22;7640;53.116;6.878;2022-12-18T04:24:09;-4.30;99.90
15083;DHT22;7640;53.116;6.878;2022-12-18T04:26:37;-4.30;99.90
15083;DHT22;7640;53.116;6.878;2022-12-18T04:29:06;-4.30;99.90
15083;DHT22;7640;53.116;6.878;2022-12-18T04:31:36;-4.40;99.90
15083;DHT22;7640;53.116;6.878;2022-12-18T04:34:04;-4.30;99.90
15083;DHT22;7640;53.116;6.878;2022-12-18T04:36:32;-4.40;99.90
15083;DHT22;7640;53.116;6.878;2022-12-18T04:39:01;-4.40;99.90
15083;DHT22;7640;53.116;6.878;2022-12-18T04:41:29;-4.40;99.90
15083;DHT22;7640;53.116;6.878;2022-12-18T04:43:57;-4.40;99.90
15083;DHT22;7640;53.116;6.878;2022-12-18T04:46:25;-4.40;99.90
15083;DHT22;7640;53.116;6.878;2022-12-18T04:48:55;-4.50;99.90
15083;DHT22;7640;53.116;6.878;2022-12-18T04:51:23;-4.50;99.90
15083;DHT22;7640;53.116;6.878;2022-12-18T04:53:52;-4.50;99.90
15083;DHT22;7640;53.116;6.878;2022-12-18T04:56:21;-4.50;99.90
15083;DHT22;7640;53.116;6.878;2022-12-18T04:58:49;-4.50;99.90
15083;DHT22;7640;53.116;6.878;2022-12-18T05:01:18;-4.60;99.90
15083;DHT22;7640;53.116;6.878;2022-12-18T05:03:46;-4.60;99.90
15083;DHT22;7640;53.116;6.878;2022-12-18T05:06:17;-4.60;99.90
15083;DHT22;7640;53.116;6.878;2022-12-18T05:08:45;-4.60;99.90
15083;DHT22;7640;53.116;6.878;2022-12-18T05:11:14;-4.60;99.90
15083;DHT22;7640;53.116;6.878;2022-12-18T05:13:44;-4.60;99.90
15083;DHT22;7640;53.116;6.878;2022-12-18T05:16:13;-4.60;99.90
15083;DHT22;7640;53.116;6.878;2022-12-18T05:18:42;-4.70;99.90
15083;DHT22;7640;53.116;6.878;2022-12-18T05:21:10;-4.70;99.90
15083;DHT22;7640;53.116;6.878;2022-12-18T05:23:40;-4.70;99.90
15083;DHT22;7640;53.116;6.878;2022-12-18T05:26:09;-4.70;99.90
15083;DHT22;7640;53.116;6.878;2022-12-18T05:28:43;-4.70;99.90
15083;DHT22;7640;53.116;6.878;2022-12-18T05:31:11;-4.70;99.90
15083;DHT22;7640;53.116;6.878;2022-12-18T05:33:40;-4.70;99.90
15083;DHT22;7640;53.116;6.878;2022-12-18T05:36:10;-4.70;99.90
15083;DHT22;7640;53.116;6.878;2022-12-18T05:38:40;-4.70;99.90
15083;DHT22;7640;53.116;6.878;2022-12-18T05:41:09;-4.70;99.90
15083;DHT22;7640;53.116;6.878;2022-12-18T05:43:39;-4.80;99.90
15083;DHT22;7640;53.116;6.878;2022-12-18T05:46:12;-4.80;99.90
15083;DHT22;7640;53.116;6.878;2022-12-18T05:48:42;-4.80;99.90
15083;DHT22;7640;53.116;6.878;2022-12-18T05:51:14;-4.80;99.90
15083;DHT22;7640;53.116;6.878;2022-12-18T05:53:44;-4.80;99.90
15083;DHT22;7640;53.116;6.878;2022-12-18T05:56:15;-4.80;99.90
15083;DHT22;7640;53.116;6.878;2022-12-18T05:58:45;-4.90;99.90
15083;DHT22;7640;53.116;6.878;2022-12-18T06:01:16;-4.90;99.90
15083;DHT22;7640;53.116;6.878;2022-12-18T06:03:45;-4.90;99.90
15083;DHT22;7640;53.116;6.878;2022-12-18T06:06:15;-4.90;99.90
15083;DHT22;7640;53.116;6.878;2022-12-18T06:08:46;-4.90;99.90
15083;DHT22;7640;53.116;6.878;2022-12-18T06:11:17;-4.90;99.90
15083;DHT22;7640;53.116;6.878;2022-12-18T06:13:50;-4.90;99.90
15083;DHT22;7640;53.116;6.878;2022-12-18T06:16:25;-4.90;99.90
15083;DHT22;7640;53.116;6.878;2022-12-18T06:18:56;-5.00;99.90
15083;DHT22;7640;53.116;6.878;2022-12-18T06:21:25;-5.00;99.90
15083;DHT22;7640;53.116;6.878;2022-12-18T06:23:55;-5.00;99.90
15083;DHT22;7640;53.116;6.878;2022-12-18T06:26:24;-5.00;99.90
15083;DHT22;7640;53.116;6.878;2022-12-18T06:28:54;-5.00;99.90
15083;DHT22;7640;53.116;6.878;2022-12-18T06:31:24;-5.00;99.90
15083;DHT22;7640;53.116;6.878;2022-12-18T06:33:56;-5.00;99.90
15083;DHT22;7640;53.116;6.878;2022-12-18T06:36:24;-5.00;99.90
15083;DHT22;7640;53.116;6.878;2022-12-18T06:38:52;-5.10;99.90
15083;DHT22;7640;53.116;6.878;2022-12-18T06:41:22;-5.10;99.90
15083;DHT22;7640;53.116;6.878;2022-12-18T06:43:51;-5.10;99.90
15083;DHT22;7640;53.116;6.878;2022-12-18T06:46:25;-5.10;99.90
15083;DHT22;7640;53.116;6.878;2022-12-18T06:48:53;-5.10;99.90
15083;DHT22;7640;53.116;6.878;2022-12-18T06:51:23;-5.10;99.90
15083;DHT22;7640;53.116;6.878;2022-12-18T06:53:52;-5.10;99.90
15083;DHT22;7640;53.116;6.878;2022-12-18T06:56:21;-5.10;99.90
15083;DHT22;7640;53.116;6.878;2022-12-18T06:58:50;-5.10;99.90
15083;DHT22;7640;53.116;6.878;2022-12-18T07:01:18;-5.10;99.90
15083;DHT22;7640;53.116;6.878;2022-12-18T07:03:47;-5.10;99.90
15083;DHT22;7640;53.116;6.878;2022-12-18T07:06:21;-5.10;99.90
15083;DHT22;7640;53.116;6.878;2022-12-18T07:08:51;-5.10;99.90
15083;DHT22;7640;53.116;6.878;2022-12-18T07:11:20;-5.10;99.90
15083;DHT22;7640;53.116;6.878;2022-12-18T07:13:49;-5.10;99.90
15083;DHT22;7640;53.116;6.878;2022-12-18T07:16:19;-5.10;99.90
15083;DHT22;7640;53.116;6.878;2022-12-18T07:18:51;-5.10;99.90
15083;DHT22;7640;53.116;6.878;2022-12-18T07:21:20;-5.10;99.90
15083;DHT22;7640;53.116;6.878;2022-12-18T07:23:49;-5.10;99.90
15083;DHT22;7640;53.116;6.878;2022-12-18T07:26:19;-5.10;99.90
15083;DHT22;7640;53.116;6.878;2022-12-18T07:28:49;-5.10;99.90
15083;DHT22;7640;53.116;6.878;2022-12-18T07:31:20;-5.10;99.90
15083;DHT22;7640;53.116;6.878;2022-12-18T07:33:49;-5.10;99.90
15083;DHT22;7640;53.116;6.878;2022-12-18T07:36:18;-5.00;99.90
15083;DHT22;7640;53.116;6.878;2022-12-18T07:38:48;-5.10;99.90
15083;DHT22;7640;53.116;6.878;2022-12-18T07:41:18;-5.00;99.90
15083;DHT22;7640;53.116;6.878;2022-12-18T07:43:47;-5.00;99.90
15083;DHT22;7640;53.116;6.878;2022-12-18T07:46:18;-5.00;99.90
15083;DHT22;7640;53.116;6.878;2022-12-18T07:48:47;-5.00;99.90
15083;DHT22;7640;53.116;6.878;2022-12-18T07:51:17;-5.00;99.90
15083;DHT22;7640;53.116;6.878;2022-12-18T07:53:46;-5.00;99.90
15083;DHT22;7640;53.116;6.878;2022-12-18T07:56:18;-5.00;99.90
15083;DHT22;7640;53.116;6.878;2022-12-18T07:58:56;-5.00;99.90
15083;DHT22;7640;53.116;6.878;2022-12-18T08:01:24;-5.00;99.90
15083;DHT22;7640;53.116;6.878;2022-12-18T08:03:53;-4.90;99.90
15083;DHT22;7640;53.116;6.878;2022-12-18T08:06:21;-4.90;99.90
15083;DHT22;7640;53.116;6.878;2022-12-18T08:08:51;-4.90;99.90
15083;DHT22;7640;53.116;6.878;2022-12-18T08:11:21;-4.90;99.90
15083;DHT22;7640;53.116;6.878;2022-12-18T08:13:49;-4.80;99.90
15083;DHT22;7640;53.116;6.878;2022-12-18T08:16:20;-4.80;99.90
15083;DHT22;7640;53.116;6.878;2022-12-18T08:18:51;-4.80;99.90
15083;DHT22;7640;53.116;6.878;2022-12-18T08:21:21;-4.70;99.90
15083;DHT22;7640;53.116;6.878;2022-12-18T08:23:52;-4.70;99.90
15083;DHT22;7640;53.116;6.878;2022-12-18T08:26:22;-4.60;99.90
15083;DHT22;7640;53.116;6.878;2022-12-18T08:28:52;-4.60;99.90
15083;DHT22;7640;53.116;6.878;2022-12-18T08:31:23;-4.50;99.90
15083;DHT22;7640;53.116;6.878;2022-12-18T08:33:53;-4.50;99.90
15083;DHT22;7640;53.116;6.878;2022-12-18T08:36:22;-4.50;99.90
15083;DHT22;7640;53.116;6.878;2022-12-18T08:38:52;-4.40;99.90
15083;DHT22;7640;53.116;6.878;2022-12-18T08:41:21;-4.30;99.90
15083;DHT22;7640;53.116;6.878;2022-12-18T08:43:49;-4.30;99.90
15083;DHT22;7640;53.116;6.878;2022-12-18T08:46:38;-4.30;99.90
15083;DHT22;7640;53.116;6.878;2022-12-18T08:49:08;-4.30;99.90
15083;DHT22;7640;53.116;6.878;2022-12-18T08:51:38;-4.20;99.90
15083;DHT22;7640;53.116;6.878;2022-12-18T08:54:07;-4.30;99.90
15083;DHT22;7640;53.116;6.878;2022-12-18T08:56:36;-4.20;99.90
15083;DHT22;7640;53.116;6.878;2022-12-18T08:59:05;-4.10;99.90
15083;DHT22;7640;53.116;6.878;2022-12-18T09:01:33;-4.10;99.90
15083;DHT22;7640;53.116;6.878;2022-12-18T09:04:03;-4.10;99.90
15083;DHT22;7640;53.116;6.878;2022-12-18T09:06:33;-4.00;99.90
15083;DHT22;7640;53.116;6.878;2022-12-18T09:09:02;-4.00;99.90
15083;DHT22;7640;53.116;6.878;2022-12-18T09:11:32;-4.00;99.90
15083;DHT22;7640;53.116;6.878;2022-12-18T09:14:01;-3.90;99.90
15083;DHT22;7640;53.116;6.878;2022-12-18T09:16:31;-3.90;99.90
15083;DHT22;7640;53.116;6.878;2022-12-18T09:19:04;-3.80;99.90
15083;DHT22;7640;53.116;6.878;2022-12-18T09:21:34;-3.80;99.90
15083;DHT22;7640;53.116;6.878;2022-12-18T09:24:04;-3.70;99.90
15083;DHT22;7640;53.116;6.878;2022-12-18T09:26:35;-3.60;99.90
15083;DHT22;7640;53.116;6.878;2022-12-18T09:29:05;-3.60;99.90
15083;DHT22;7640;53.116;6.878;2022-12-18T09:31:35;-3.50;99.90
15083;DHT22;7640;53.116;6.878;2022-12-18T09:34:05;-3.40;99.90
15083;DHT22;7640;53.116;6.878;2022-12-18T09:36:34;-3.30;99.90
15083;DHT22;7640;53.116;6.878;2022-12-18T09:39:03;-3.20;99.90
15083;DHT22;7640;53.116;6.878;2022-12-18T09:41:42;-3.10;99.90
15083;DHT22;7640;53.116;6.878;2022-12-18T09:44:22;-3.00;99.90
15083;DHT22;7640;53.116;6.878;2022-12-18T09:47:01;-2.90;99.90
15083;DHT22;7640;53.116;6.878;2022-12-18T09:49:38;-2.90;99.90
15083;DHT22;7640;53.116;6.878;2022-12-18T09:52:13;-2.80;99.90
15083;DHT22;7640;53.116;6.878;2022-12-18T09:54:46;-2.70;99.90
15083;DHT22;7640;53.116;6.878;2022-12-18T09:57:20;-2.70;99.90
15083;DHT22;7640;53.116;6.878;2022-12-18T09:59:55;-2.60;99.90
15083;DHT22;7640;53.116;6.878;2022-12-18T10:02:26;-2.40;99.90
15083;DHT22;7640;53.116;6.878;2022-12-18T10:05:03;-2.50;99.90
15083;DHT22;7640;53.116;6.878;2022-12-18T10:07:43;-2.50;99.90
15083;DHT22;7640;53.116;6.878;2022-12-18T10:10:28;-2.50;99.90
15083;DHT22;7640;53.116;6.878;2022-12-18T10:13:06;-2.40;99.90
15083;DHT22;7640;53.116;6.878;2022-12-18T10:15:48;-2.40;99.90
15083;DHT22;7640;53.116;6.878;2022-12-18T10:18:34;-2.40;99.90
15083;DHT22;7640;53.116;6.878;2022-12-18T10:21:18;-2.40;99.90
15083;DHT22;7640;53.116;6.878;2022-12-18T10:23:58;-2.40;99.90
15083;DHT22;7640;53.116;6.878;2022-12-18T10:26:32;-2.40;99.90
15083;DHT22;7640;53.116;6.878;2022-12-18T10:29:00;-2.30;99.90
15083;DHT22;7640;53.116;6.878;2022-12-18T10:31:31;-2.30;99.90
15083;DHT22;7640;53.116;6.878;2022-12-18T10:34:00;-2.20;99.90
15083;DHT22;7640;53.116;6.878;2022-12-18T10:36:29;-2.10;99.90
15083;DHT22;7640;53.116;6.878;2022-12-18T10:39:14;-2.10;99.90
15083;DHT22;7640;53.116;6.878;2022-12-18T10:41:44;-2.00;99.90
15083;DHT22;7640;53.116;6.878;2022-12-18T10:44:17;-1.90;99.90
15083;DHT22;7640;53.116;6.878;2022-12-18T10:46:49;-2.00;99.90
15083;DHT22;7640;53.116;6.878;2022-12-18T10:49:22;-1.90;99.90
15083;DHT22;7640;53.116;6.878;2022-12-18T10:52:07;-1.90;99.90
15083;DHT22;7640;53.116;6.878;2022-12-18T10:54:47;-1.80;99.90
15083;DHT22;7640;53.116;6.878;2022-12-18T10:57:30;-1.80;99.90
15083;DHT22;7640;53.116;6.878;2022-12-18T11:00:23;-1.70;99.90
15083;DHT22;7640;53.116;6.878;2022-12-18T11:02:53;-1.70;99.90
15083;DHT22;7640;53.116;6.878;2022-12-18T11:05:28;-1.60;99.90
15083;DHT22;7640;53.116;6.878;2022-12-18T11:08:02;-1.50;99.90
15083;DHT22;7640;53.116;6.878;2022-12-18T11:10:32;-1.50;99.90
15083;DHT22;7640;53.116;6.878;2022-12-18T11:13:12;-1.40;99.90
15083;DHT22;7640;53.116;6.878;2022-12-18T11:15:44;-1.30;99.90
15083;DHT22;7640;53.116;6.878;2022-12-18T11:18:22;-1.30;99.90
15083;DHT22;7640;53.116;6.878;2022-12-18T11:20:54;-1.20;99.90
15083;DHT22;7640;53.116;6.878;2022-12-18T11:23:26;-1.10;99.90
15083;DHT22;7640;53.116;6.878;2022-12-18T11:26:00;-1.00;99.90
15083;DHT22;7640;53.116;6.878;2022-12-18T11:28:41;-0.90;99.90
15083;DHT22;7640;53.116;6.878;2022-12-18T11:34:01;-0.80;99.90
15083;DHT22;7640;53.116;6.878;2022-12-18T11:36:52;-0.70;99.90
15083;DHT22;7640;53.116;6.878;2022-12-18T11:39:28;-0.60;99.90
15083;DHT22;7640;53.116;6.878;2022-12-18T11:42:04;-0.60;99.90
15083;DHT22;7640;53.116;6.878;2022-12-18T11:44:42;-0.50;99.90
15083;DHT22;7640;53.116;6.878;2022-12-18T11:47:24;-0.50;99.90
15083;DHT22;7640;53.116;6.878;2022-12-18T11:49:55;-0.40;99.90
15083;DHT22;7640;53.116;6.878;2022-12-18T11:52:33;-0.40;99.90
15083;DHT22;7640;53.116;6.878;2022-12-18T11:55:12;-0.30;99.90
15083;DHT22;7640;53.116;6.878;2022-12-18T11:57:47;-0.30;99.90
15083;DHT22;7640;53.116;6.878;2022-12-18T12:00:20;-0.30;99.90
15083;DHT22;7640;53.116;6.878;2022-12-18T12:06:26;-0.20;99.90
15083;DHT22;7640;53.116;6.878;2022-12-18T12:09:06;-0.20;99.90
15083;DHT22;7640;53.116;6.878;2022-12-18T12:11:48;-0.10;99.90
15083;DHT22;7640;53.116;6.878;2022-12-18T12:14:34;-0.10;99.90
15083;DHT22;7640;53.116;6.878;2022-12-18T12:17:16;0.00;99.90
15083;DHT22;7640;53.116;6.878;2022-12-18T12:19:55;-0.10;99.90
15083;DHT22;7640;53.116;6.878;2022-12-18T12:22:37;-0.10;99.90
15083;DHT22;7640;53.116;6.878;2022-12-18T12:25:21;0.00;99.90
15083;DHT22;7640;53.116;6.878;2022-12-18T12:28:09;0.00;99.90
15083;DHT22;7640;53.116;6.878;2022-12-18T12:30:50;0.10;99.90
15083;DHT22;7640;53.116;6.878;2022-12-18T12:33:31;0.10;99.90
15083;DHT22;7640;53.116;6.878;2022-12-18T12:36:12;0.10;99.90
15083;DHT22;7640;53.116;6.878;2022-12-18T12:38:47;0.10;99.90
15083;DHT22;7640;53.116;6.878;2022-12-18T12:41:20;0.20;99.90
15083;DHT22;7640;53.116;6.878;2022-12-18T12:44:16;0.20;99.90
15083;DHT22;7640;53.116;6.878;2022-12-18T12:46:49;0.20;99.90
15083;DHT22;7640;53.116;6.878;2022-12-18T12:49:24;0.20;99.90
15083;DHT22;7640;53.116;6.878;2022-12-18T12:52:03;0.30;99.90
15083;DHT22;7640;53.116;6.878;2022-12-18T12:54:34;0.30;99.90
15083;DHT22;7640;53.116;6.878;2022-12-18T12:57:09;0.30;99.90
15083;DHT22;7640;53.116;6.878;2022-12-18T12:59:47;0.40;99.90
15083;DHT22;7640;53.116;6.878;2022-12-18T13:02:24;0.40;99.90
15083;DHT22;7640;53.116;6.878;2022-12-18T13:05:03;0.40;99.90
15083;DHT22;7640;53.116;6.878;2022-12-18T13:07:40;0.50;99.90
15083;DHT22;7640;53.116;6.878;2022-12-18T13:10:31;0.50;99.90
15083;DHT22;7640;53.116;6.878;2022-12-18T13:13:03;0.50;99.90
15083;DHT22;7640;53.116;6.878;2022-12-18T13:15:37;0.50;99.90
15083;DHT22;7640;53.116;6.878;2022-12-18T13:18:19;0.60;99.90
15083;DHT22;7640;53.116;6.878;2022-12-18T13:20:51;0.60;99.90
15083;DHT22;7640;53.116;6.878;2022-12-18T13:23:34;0.60;99.90
15083;DHT22;7640;53.116;6.878;2022-12-18T13:26:29;0.70;99.90
15083;DHT22;7640;53.116;6.878;2022-12-18T13:29:00;0.70;99.90
15083;DHT22;7640;53.116;6.878;2022-12-18T13:38:20;0.70;99.90
15083;DHT22;7640;53.116;6.878;2022-12-18T13:40:57;0.70;99.90
15083;DHT22;7640;53.116;6.878;2022-12-18T13:43:33;0.70;99.90
15083;DHT22;7640;53.116;6.878;2022-12-18T13:46:17;0.70;99.90
15083;DHT22;7640;53.116;6.878;2022-12-18T13:48:58;0.70;99.90
15083;DHT22;7640;53.116;6.878;2022-12-18T13:51:31;0.70;99.90
15083;DHT22;7640;53.116;6.878;2022-12-18T13:54:02;0.70;99.90
15083;DHT22;7640;53.116;6.878;2022-12-18T13:56:34;0.60;99.90
15083;DHT22;7640;53.116;6.878;2022-12-18T13:59:19;0.60;99.90
15083;DHT22;7640;53.116;6.878;2022-12-18T14:01:53;0.60;99.90
15083;DHT22;7640;53.116;6.878;2022-12-18T14:04:27;0.60;99.90
15083;DHT22;7640;53.116;6.878;2022-12-18T14:06:58;0.70;99.90
15083;DHT22;7640;53.116;6.878;2022-12-18T14:09:33;0.60;99.90
15083;DHT22;7640;53.116;6.878;2022-12-18T14:12:05;0.50;99.90
15083;DHT22;7640;53.116;6.878;2022-12-18T14:14:53;0.50;99.90
15083;DHT22;7640;53.116;6.878;2022-12-18T14:17:22;0.50;99.90
15083;DHT22;7640;53.116;6.878;2022-12-18T14:19:53;0.40;99.90
15083;DHT22;7640;53.116;6.878;2022-12-18T14:22:24;0.40;99.90
15083;DHT22;7640;53.116;6.878;2022-12-18T14:25:13;0.40;99.90
15083;DHT22;7640;53.116;6.878;2022-12-18T14:27:46;0.30;99.90
15083;DHT22;7640;53.116;6.878;2022-12-18T14:30:29;0.40;99.90
15083;DHT22;7640;53.116;6.878;2022-12-18T14:33:05;0.30;99.90
15083;DHT22;7640;53.116;6.878;2022-12-18T14:35:40;0.20;99.90
15083;DHT22;7640;53.116;6.878;2022-12-18T14:38:11;0.10;99.90
15083;DHT22;7640;53.116;6.878;2022-12-18T14:40:49;0.10;99.90
15083;DHT22;7640;53.116;6.878;2022-12-18T14:43:20;0.00;99.90
15083;DHT22;7640;53.116;6.878;2022-12-18T14:45:49;0.00;99.90
15083;DHT22;7640;53.116;6.878;2022-12-18T14:48:20;0.00;99.90
15083;DHT22;7640;53.116;6.878;2022-12-18T14:51:01;0.00;99.90
15083;DHT22;7640;53.116;6.878;2022-12-18T14:53:36;-0.10;99.90
15083;DHT22;7640;53.116;6.878;2022-12-18T14:56:16;-0.10;99.90
15083;DHT22;7640;53.116;6.878;2022-12-18T14:58:47;-0.10;99.90
15083;DHT22;7640;53.116;6.878;2022-12-18T15:01:21;-0.10;99.90
15083;DHT22;7640;53.116;6.878;2022-12-18T15:03:53;-0.10;99.90
15083;DHT22;7640;53.116;6.878;2022-12-18T15:06:28;-0.20;99.90
15083;DHT22;7640;53.116;6.878;2022-12-18T15:08:59;-0.20;99.90
15083;DHT22;7640;53.116;6.878;2022-12-18T15:11:34;-0.20;99.90
15083;DHT22;7640;53.116;6.878;2022-12-18T15:14:24;-0.20;99.90
15083;DHT22;7640;53.116;6.878;2022-12-18T15:17:00;-0.20;99.90
15083;DHT22;7640;53.116;6.878;2022-12-18T15:19:38;-0.30;99.90
15083;DHT22;7640;53.116;6.878;2022-12-18T15:22:20;-0.20;99.90
15083;DHT22;7640;53.116;6.878;2022-12-18T15:24:50;-0.30;99.90
15083;DHT22;7640;53.116;6.878;2022-12-18T15:27:30;-0.30;99.90
15083;DHT22;7640;53.116;6.878;2022-12-18T15:30:20;-0.30;99.90
15083;DHT22;7640;53.116;6.878;2022-12-18T15:32:51;-0.30;99.90
15083;DHT22;7640;53.116;6.878;2022-12-18T15:35:22;-0.30;99.90
15083;DHT22;7640;53.116;6.878;2022-12-18T15:37:52;-0.40;99.90
15083;DHT22;7640;53.116;6.878;2022-12-18T15:40:23;-0.40;99.90
15083;DHT22;7640;53.116;6.878;2022-12-18T15:42:55;-0.40;99.90
15083;DHT22;7640;53.116;6.878;2022-12-18T15:45:41;-0.30;99.90
15083;DHT22;7640;53.116;6.878;2022-12-18T15:48:18;-0.40;99.90
15083;DHT22;7640;53.116;6.878;2022-12-18T15:50:49;-0.40;99.90
15083;DHT22;7640;53.116;6.878;2022-12-18T15:53:20;-0.40;99.90
15083;DHT22;7640;53.116;6.878;2022-12-18T15:55:48;-0.40;99.90
15083;DHT22;7640;53.116;6.878;2022-12-18T15:58:34;-0.40;99.90
15083;DHT22;7640;53.116;6.878;2022-12-18T16:01:04;-0.40;99.90
15083;DHT22;7640;53.116;6.878;2022-12-18T16:03:35;-0.30;99.90
15083;DHT22;7640;53.116;6.878;2022-12-18T16:06:05;-0.40;99.90
15083;DHT22;7640;53.116;6.878;2022-12-18T16:08:35;-0.40;99.90
15083;DHT22;7640;53.116;6.878;2022-12-18T16:11:20;-0.40;99.90
15083;DHT22;7640;53.116;6.878;2022-12-18T16:14:08;-0.30;99.90
15083;DHT22;7640;53.116;6.878;2022-12-18T16:16:41;-0.40;99.90
15083;DHT22;7640;53.116;6.878;2022-12-18T16:19:10;-0.40;99.90
15083;DHT22;7640;53.116;6.878;2022-12-18T16:21:39;-0.40;99.90
15083;DHT22;7640;53.116;6.878;2022-12-18T16:24:14;-0.30;99.90
15083;DHT22;7640;53.116;6.878;2022-12-18T16:26:43;-0.30;99.90
15083;DHT22;7640;53.116;6.878;2022-12-18T16:29:12;-0.30;99.90
15083;DHT22;7640;53.116;6.878;2022-12-18T16:31:40;-0.30;99.90
15083;DHT22;7640;53.116;6.878;2022-12-18T16:34:10;-0.20;99.90
15083;DHT22;7640;53.116;6.878;2022-12-18T16:36:43;-0.30;99.90
15083;DHT22;7640;53.116;6.878;2022-12-18T16:39:12;-0.30;99.90